Time;durP1;ratioP1;P1;durP2;ratioP2;P2;SDS_P1;SDS_P2;PMS_P1;PMS_P2;Temp;Humidity;BMP_temperature;BMP_pressure;BME280_temperature;BME280_humidity;BME280_pressure;Samples;Min_cycle;Max_cycle;Signal;HPM_P1;HPM_P2
2022/08/15 00:00:29;;;;;;;9.33;6.50;;;28.80;48.70;;;;;;5053304;28;20316;-89
2022/08/15 00:02:57;;;;;;;6.80;6.20;;;28.80;48.70;;;;;;5053128;28;20172;-89
2022/08/15 00:05:23;;;;;;;6.73;5.97;;;28.80;48.70;;;;;;5052664;28;20184;-90
2022/08/15 00:07:50;;;;;;;7.30;6.10;;;28.80;48.70;;;;;;5052750;28;20223;-90
2022/08/15 00:10:21;;;;;;;6.53;5.87;;;28.80;48.70;;;;;;5054251;28;20169;-90
2022/08/15 00:12:48;;;;;;;6.80;6.07;;;28.80;48.70;;;;;;5056770;28;20168;-91
2022/08/15 00:15:18;;;;;;;7.00;6.33;;;28.80;48.80;;;;;;5056841;28;20203;-91
2022/08/15 00:17:45;;;;;;;7.27;5.97;;;28.70;49.10;;;;;;5057713;28;20164;-90
2022/08/15 00:20:11;;;;;;;6.80;6.10;;;28.70;48.80;;;;;;5056949;28;20589;-91
2022/08/15 00:22:52;;;;;;;6.47;5.87;;;28.70;48.90;;;;;;5055992;28;20566;-91
2022/08/15 00:25:18;;;;;;;6.47;5.87;;;28.70;48.90;;;;;;5058648;28;20178;-91
2022/08/15 00:27:44;;;;;;;7.07;6.37;;;28.70;48.90;;;;;;5058499;28;20176;-91
2022/08/15 00:30:11;;;;;;;6.50;5.80;;;28.70;48.90;;;;;;5058466;28;20195;-90
2022/08/15 00:32:37;;;;;;;6.37;5.77;;;28.70;49.00;;;;;;5055783;28;20195;-91
2022/08/15 00:35:35;;;;;;;6.67;5.70;;;28.70;48.90;;;;;;5055978;28;20200;-91
2022/08/15 00:37:55;;;;;;;6.40;5.80;;;28.70;48.90;;;;;;5055925;28;20489;-91
2022/08/15 00:40:23;;;;;;;6.13;5.53;;;28.70;48.90;;;;;;5056962;28;20200;-91
2022/08/15 00:42:50;;;;;;;6.53;5.90;;;28.60;48.80;;;;;;5057888;28;20172;-90
2022/08/15 00:45:16;;;;;;;6.43;5.83;;;28.60;48.90;;;;;;5056894;28;20187;-90
2022/08/15 00:47:42;;;;;;;6.20;5.70;;;28.60;48.90;;;;;;5058776;28;20538;-90
2022/08/15 00:50:14;;;;;;;6.07;5.57;;;28.60;49.00;;;;;;5055576;28;20173;-90
2022/08/15 00:52:40;;;;;;;6.73;5.60;;;28.60;49.00;;;;;;5055846;28;20172;-90
2022/08/15 00:55:15;;;;;;;5.60;5.10;;;28.60;49.00;;;;;;5057072;28;20168;-90
2022/08/15 00:57:44;;;;;;;5.93;5.40;;;28.60;49.00;;;;;;5056892;28;20171;-89
2022/08/15 01:00:18;;;;;;;6.00;5.47;;;28.60;49.00;;;;;;5055936;28;20309;-90
2022/08/15 01:02:44;;;;;;;6.13;5.60;;;28.60;49.10;;;;;;5056832;28;20234;-89
2022/08/15 01:05:12;;;;;;;5.93;5.30;;;28.60;49.10;;;;;;5057130;28;20179;-90
2022/08/15 01:07:39;;;;;;;6.40;5.63;;;28.60;49.10;;;;;;5057236;28;20172;-90
2022/08/15 01:10:07;;;;;;;5.57;5.07;;;28.60;49.00;;;;;;5057109;28;20480;-89
2022/08/15 01:12:33;;;;;;;5.60;5.10;;;28.50;49.00;;;;;;5056758;28;20179;-90
2022/08/15 01:15:06;;;;;;;5.40;5.00;;;28.50;49.00;;;;;;5057487;28;20204;-91
2022/08/15 01:17:33;;;;;;;6.00;5.50;;;28.50;49.00;;;;;;5056357;28;20194;-91
2022/08/15 01:20:09;;;;;;;5.70;5.10;;;28.50;49.10;;;;;;5056520;28;20176;-90
2022/08/15 01:22:56;;;;;;;5.80;5.30;;;28.50;49.10;;;;;;5055077;28;20168;-91
2022/08/15 01:26:03;;;;;;;5.70;5.20;;;28.50;49.10;;;;;;5058151;28;20172;-90
2022/08/15 01:28:36;;;;;;;5.93;5.43;;;28.50;49.10;;;;;;5056461;28;20266;-90
2022/08/15 01:31:11;;;;;;;5.93;5.30;;;28.50;49.10;;;;;;5057419;28;20229;-90
2022/08/15 01:33:43;;;;;;;6.13;5.53;;;28.50;49.10;;;;;;5056563;28;20266;-91
2022/08/15 01:36:10;;;;;;;6.67;6.07;;;28.50;49.60;;;;;;5057318;28;20544;-91
2022/08/15 01:38:43;;;;;;;6.17;5.67;;;28.40;50.00;;;;;;5056936;28;20176;-91
2022/08/15 01:41:32;;;;;;;5.70;5.20;;;28.30;49.90;;;;;;5053968;28;20215;-90
2022/08/15 01:44:08;;;;;;;6.33;5.63;;;28.30;49.60;;;;;;5054669;28;20412;-91
2022/08/15 01:46:42;;;;;;;5.43;4.97;;;28.30;49.80;;;;;;5054517;28;20493;-90
2022/08/15 01:49:26;;;;;;;5.57;5.10;;;28.20;49.50;;;;;;5056189;28;20199;-91
2022/08/15 01:51:55;;;;;;;6.70;5.37;;;28.30;49.40;;;;;;5055037;28;20172;-89
2022/08/15 01:54:23;;;;;;;5.73;5.23;;;28.30;49.50;;;;;;5053421;28;20172;-90
2022/08/15 01:56:49;;;;;;;5.80;5.30;;;28.30;49.40;;;;;;5054836;28;20226;-89
2022/08/15 01:59:21;;;;;;;6.87;5.17;;;28.30;49.50;;;;;;5052526;28;20291;-90
2022/08/15 02:01:55;;;;;;;5.80;5.30;;;28.30;49.50;;;;;;5053578;28;20199;-90
2022/08/15 02:04:28;;;;;;;6.20;5.70;;;28.30;49.50;;;;;;5055593;28;20214;-90
2022/08/15 02:06:55;;;;;;;5.77;5.27;;;28.30;49.50;;;;;;5054723;28;20199;-90
2022/08/15 02:09:21;;;;;;;5.47;5.00;;;28.30;49.30;;;;;;5054896;28;20179;-89
2022/08/15 02:11:50;;;;;;;5.50;5.00;;;28.30;49.40;;;;;;5055183;28;20176;-89
2022/08/15 02:14:17;;;;;;;5.77;5.27;;;28.30;49.40;;;;;;5056019;28;20176;-90
2022/08/15 02:16:43;;;;;;;5.60;5.10;;;28.30;49.40;;;;;;5056258;28;20177;-90
2022/08/15 02:19:12;;;;;;;5.90;5.40;;;28.30;49.40;;;;;;5056826;28;20206;-89
2022/08/15 02:21:40;;;;;;;5.90;5.33;;;28.30;49.40;;;;;;5056216;28;20210;-90
2022/08/15 02:24:10;;;;;;;5.73;5.13;;;28.20;49.30;;;;;;5056555;28;20233;-90
2022/08/15 02:26:36;;;;;;;5.90;5.40;;;28.20;49.30;;;;;;5056111;28;20172;-90
2022/08/15 02:29:04;;;;;;;6.10;5.50;;;28.20;49.30;;;;;;5090090;28;20177;-90
2022/08/15 02:31:31;;;;;;;6.20;5.67;;;28.20;49.10;;;;;;5054941;28;20555;-90
2022/08/15 02:34:00;;;;;;;5.53;5.03;;;28.10;49.00;;;;;;5055551;28;20456;-89
2022/08/15 02:36:31;;;;;;;5.83;5.33;;;28.10;49.20;;;;;;5055491;28;20271;-89
2022/08/15 02:39:02;;;;;;;5.83;5.23;;;28.10;49.20;;;;;;5056318;28;20550;-89
2022/08/15 02:41:36;;;;;;;5.90;5.40;;;28.10;49.20;;;;;;5055825;28;20302;-90
2022/08/15 02:44:01;;;;;;;6.87;6.17;;;28.10;49.20;;;;;;5055250;28;20172;-90
2022/08/15 02:46:29;;;;;;;6.00;5.50;;;28.10;49.70;;;;;;5055847;28;20650;-90
2022/08/15 02:48:58;;;;;;;6.63;5.60;;;28.10;50.20;;;;;;5056404;28;20164;-90
2022/08/15 02:51:25;;;;;;;6.17;5.57;;;28.00;50.50;;;;;;5055669;28;20258;-90
2022/08/15 02:53:52;;;;;;;5.50;5.00;;;27.90;50.10;;;;;;5054854;28;20551;-90
2022/08/15 02:56:23;;;;;;;5.80;5.10;;;27.90;49.80;;;;;;5054496;28;20180;-90
2022/08/15 02:58:50;;;;;;;5.80;5.30;;;27.90;49.70;;;;;;5053399;28;20168;-91
2022/08/15 03:01:18;;;;;;;6.07;5.40;;;28.00;49.60;;;;;;5053889;28;20216;-91
2022/08/15 03:03:48;;;;;;;5.93;5.43;;;28.00;49.60;;;;;;5054049;28;20240;-91
2022/08/15 03:06:17;;;;;;;5.63;5.13;;;28.00;49.60;;;;;;5054677;28;20266;-91
2022/08/15 03:08:44;;;;;;;5.50;5.00;;;28.00;49.60;;;;;;5054130;28;20370;-91
2022/08/15 03:11:10;;;;;;;5.77;4.90;;;28.00;49.60;;;;;;5055072;28;20182;-90
2022/08/15 03:13:38;;;;;;;5.50;5.00;;;28.00;49.60;;;;;;5053148;28;20176;-90
2022/08/15 03:16:05;;;;;;;5.60;5.07;;;28.00;49.60;;;;;;5054986;28;20237;-91
2022/08/15 03:18:33;;;;;;;5.40;4.90;;;28.00;49.60;;;;;;5054335;28;20176;-91
2022/08/15 03:21:06;;;;;;;5.60;5.10;;;28.00;49.60;;;;;;5052388;28;20204;-91
2022/08/15 03:23:32;;;;;;;5.37;4.87;;;28.00;49.50;;;;;;5052848;28;20268;-90
2022/08/15 03:26:00;;;;;;;5.37;4.97;;;28.00;49.50;;;;;;5052110;28;20245;-90
2022/08/15 03:28:31;;;;;;;8.10;5.50;;;28.00;49.50;;;;;;5052427;28;20378;-90
2022/08/15 03:31:00;;;;;;;5.60;5.10;;;28.00;49.50;;;;;;5051181;28;20527;-90
2022/08/15 03:33:28;;;;;;;7.40;5.00;;;27.90;49.50;;;;;;5051322;28;20465;-90
2022/08/15 03:35:54;;;;;;;5.30;4.80;;;27.90;49.50;;;;;;5052177;28;20172;-89
2022/08/15 03:38:20;;;;;;;5.23;4.73;;;27.90;49.50;;;;;;5049976;28;20176;-89
2022/08/15 03:40:48;;;;;;;6.43;4.53;;;27.90;49.40;;;;;;5051265;28;20211;-89
2022/08/15 03:43:26;;;;;;;5.43;4.50;;;27.80;49.20;;;;;;5051426;28;20211;-89
2022/08/15 03:46:01;;;;;;;4.67;4.27;;;27.80;49.30;;;;;;5053834;28;20196;-90
2022/08/15 03:48:29;;;;;;;5.23;4.83;;;27.80;49.40;;;;;;5057040;28;20203;-89
2022/08/15 03:50:58;;;;;;;5.10;4.60;;;27.80;49.30;;;;;;5057050;28;20176;-89
2022/08/15 03:53:26;;;;;;;5.00;4.60;;;27.80;49.30;;;;;;5058988;28;20176;-89
2022/08/15 03:55:52;;;;;;;4.77;4.30;;;27.80;49.30;;;;;;5057693;28;20363;-89
2022/08/15 03:58:18;;;;;;;5.50;4.90;;;27.80;49.30;;;;;;5057660;28;20525;-90
2022/08/15 04:00:47;;;;;;;4.90;4.40;;;27.80;49.30;;;;;;5056111;28;20212;-91
2022/08/15 04:03:14;;;;;;;6.73;4.67;;;27.80;49.30;;;;;;5054317;28;20181;-90
2022/08/15 04:05:41;;;;;;;5.77;4.90;;;27.80;49.30;;;;;;5053657;28;20223;-90
2022/08/15 04:08:09;;;;;;;5.53;4.87;;;27.80;49.30;;;;;;5054276;28;20176;-90
2022/08/15 04:10:37;;;;;;;5.60;4.67;;;27.80;49.30;;;;;;5054906;28;20206;-90
2022/08/15 04:13:10;;;;;;;5.87;4.60;;;27.80;49.20;;;;;;5056199;28;20550;-90
2022/08/15 04:15:37;;;;;;;5.03;4.53;;;27.80;49.30;;;;;;5056771;28;20176;-90
2022/08/15 04:18:04;;;;;;;9.13;4.73;;;27.80;49.20;;;;;;5056839;28;20172;-90
2022/08/15 04:20:30;;;;;;;5.63;4.97;;;27.70;49.20;;;;;;5055695;28;20200;-90
2022/08/15 04:22:56;;;;;;;5.83;4.80;;;27.80;49.20;;;;;;5055082;28;20175;-91
2022/08/15 04:25:29;;;;;;;8.10;4.90;;;27.80;49.20;;;;;;5054812;28;20172;-91
2022/08/15 04:27:59;;;;;;;6.50;4.80;;;27.80;49.20;;;;;;5053400;28;20168;-91
2022/08/15 04:30:28;;;;;;;5.40;4.80;;;27.80;49.20;;;;;;5055760;28;20168;-91
2022/08/15 04:33:04;;;;;;;5.90;4.90;;;27.70;49.10;;;;;;5055471;28;20172;-91
2022/08/15 04:35:30;;;;;;;6.27;4.87;;;27.70;49.10;;;;;;5055077;28;20490;-90
2022/08/15 04:37:57;;;;;;;5.03;4.40;;;27.70;49.10;;;;;;5055137;28;20686;-91
2022/08/15 04:40:23;;;;;;;4.80;4.40;;;27.70;49.10;;;;;;5053357;28;20200;-90
2022/08/15 04:42:53;;;;;;;6.50;4.50;;;27.70;49.00;;;;;;5052098;28;20258;-91
2022/08/15 04:45:22;;;;;;;6.27;4.30;;;27.70;49.00;;;;;;5053136;28;20570;-91
2022/08/15 04:47:49;;;;;;;6.50;4.60;;;27.70;49.00;;;;;;5050999;28;20176;-91
2022/08/15 04:50:15;;;;;;;6.17;4.40;;;27.70;49.00;;;;;;5051459;28;20230;-91
2022/08/15 04:52:55;;;;;;;8.03;4.33;;;27.70;48.90;;;;;;5050418;28;20180;-91
2022/08/15 04:55:24;;;;;;;6.27;4.73;;;27.70;48.90;;;;;;5050274;28;20311;-91
2022/08/15 04:57:54;;;;;;;5.53;3.93;;;27.70;49.00;;;;;;5049760;28;20171;-91
2022/08/15 05:00:23;;;;;;;5.97;4.00;;;27.70;48.90;;;;;;5049697;28;20191;-91
2022/08/15 05:02:58;;;;;;;6.10;3.97;;;27.70;48.90;;;;;;5049930;28;20211;-91
2022/08/15 05:05:24;;;;;;;4.87;4.20;;;27.70;49.00;;;;;;5051510;28;20175;-91
2022/08/15 05:07:50;;;;;;;4.67;4.10;;;27.70;49.00;;;;;;5051570;28;20199;-90
2022/08/15 05:10:17;;;;;;;4.77;4.10;;;27.70;48.90;;;;;;5050197;28;20168;-90
2022/08/15 05:12:43;;;;;;;5.77;4.20;;;27.60;48.90;;;;;;5050245;28;20446;-90
2022/08/15 05:15:11;;;;;;;4.60;4.03;;;27.60;48.80;;;;;;5051926;28;20192;-90
2022/08/15 05:17:38;;;;;;;5.10;3.90;;;27.60;48.80;;;;;;5049467;28;20502;-90
2022/08/15 05:20:06;;;;;;;5.63;3.70;;;27.60;48.70;;;;;;5048582;28;20172;-90
2022/08/15 05:22:32;;;;;;;3.77;3.37;;;27.60;48.70;;;;;;5049655;28;20448;-90
2022/08/15 05:24:58;;;;;;;4.57;3.60;;;27.60;48.70;;;;;;5047718;28;20172;-90
2022/08/15 05:27:23;;;;;;;4.33;3.93;;;27.60;49.10;;;;;;5048294;28;20312;-90
2022/08/15 05:29:51;;;;;;;6.83;3.73;;;27.60;48.60;;;;;;5045924;28;20242;-90
2022/08/15 05:32:18;;;;;;;4.13;3.53;;;27.60;48.60;;;;;;5048454;28;20164;-89
2022/08/15 05:34:47;;;;;;;6.37;5.60;;;27.60;48.60;;;;;;5046984;28;20191;-90
2022/08/15 05:37:14;;;;;;;6.60;5.03;;;27.60;48.50;;;;;;5046867;28;20568;-90
2022/08/15 05:43:15;;;;;;;8.20;4.80;;;27.70;48.40;;;;;;5035384;28;20203;-90
2022/08/15 05:46:06;;;;;;;5.57;4.00;;;27.70;48.40;;;;;;5037260;28;20180;-90
2022/08/15 05:48:33;;;;;;;4.77;4.00;;;27.70;48.70;;;;;;5037038;28;20279;-90
2022/08/15 05:57:51;;;;;;;3.30;3.00;;;27.70;48.20;;;;;;5035943;28;20280;-90
2022/08/15 06:00:27;;;;;;;4.57;3.50;;;27.70;48.20;;;;;;5041220;28;20193;-90
2022/08/15 06:06:28;;;;;;;4.63;3.00;;;27.50;48.20;;;;;;5037312;28;20461;-90
2022/08/15 06:12:38;;;;;;;5.63;3.30;;;27.50;48.30;;;;;;5017666;28;20213;-90
2022/08/15 06:19:06;;;;;;;3.50;3.20;;;27.70;48.20;;;;;;5042331;28;20632;-91
2022/08/15 06:21:45;;;;;;;4.07;3.20;;;27.70;48.10;;;;;;5045098;28;20257;-91
2022/08/15 06:24:51;;;;;;;3.50;3.20;;;27.70;48.00;;;;;;5041967;28;20242;-91
2022/08/15 06:31:35;;;;;;;3.67;3.00;;;27.80;48.00;;;;;;5039819;28;20233;-91
2022/08/15 06:37:52;;;;;;;4.17;3.00;;;27.80;48.00;;;;;;5040853;28;20194;-91
2022/08/15 06:40:44;;;;;;;4.60;3.53;;;27.80;48.00;;;;;;5036095;28;20420;-91
2022/08/15 06:43:32;;;;;;;6.23;4.97;;;27.80;47.90;;;;;;5021539;28;20168;-91
2022/08/15 06:48:49;;;;;;;3.27;2.97;;;27.80;47.90;;;;;;5037509;28;20215;-91
2022/08/15 06:54:40;;;;;;;4.30;3.30;;;27.90;47.90;;;;;;5038863;28;20212;-90
2022/08/15 06:57:20;;;;;;;6.47;3.63;;;27.90;47.90;;;;;;5043546;28;20172;-91
2022/08/15 06:59:52;;;;;;;3.77;3.20;;;27.90;47.90;;;;;;5037996;28;20441;-91
2022/08/15 07:06:18;;;;;;;4.07;3.10;;;27.90;47.80;;;;;;5040283;28;20501;-91
2022/08/15 07:12:30;;;;;;;5.60;3.30;;;27.90;47.90;;;;;;5038910;28;20190;-90
2022/08/15 07:15:29;;;;;;;3.47;2.90;;;28.00;47.80;;;;;;5042177;28;20697;-91
2022/08/15 07:28:25;;;;;;;6.03;3.33;;;28.40;47.40;;;;;;5041208;28;20241;-90
2022/08/15 07:34:29;;;;;;;4.40;2.63;;;28.30;47.40;;;;;;5032317;28;20251;-91
2022/08/15 07:37:17;;;;;;;4.70;3.07;;;28.30;47.60;;;;;;5036934;28;20168;-90
2022/08/15 07:39:43;;;;;;;9.40;3.10;;;28.30;47.70;;;;;;5035609;28;20291;-91
2022/08/15 07:42:15;;;;;;;5.63;2.90;;;28.30;47.70;;;;;;5040195;28;20666;-90
2022/08/15 07:44:51;;;;;;;3.80;2.90;;;28.30;47.70;;;;;;5038040;28;20276;-90
2022/08/15 07:47:27;;;;;;;4.93;3.20;;;28.30;47.60;;;;;;5038681;28;20393;-90
2022/08/15 07:53:22;;;;;;;3.80;3.10;;;28.40;47.90;;;;;;5037558;28;20226;-90
2022/08/15 07:59:30;;;;;;;7.57;3.10;;;28.50;47.40;;;;;;5037635;28;20472;-91
2022/08/15 08:02:08;;;;;;;4.00;3.10;;;28.40;47.40;;;;;;5040630;28;20278;-91
2022/08/15 08:08:42;;;;;;;5.97;3.13;;;28.40;47.60;;;;;;5036005;28;20233;-91
2022/08/15 08:11:31;;;;;;;4.67;2.90;;;28.30;47.70;;;;;;5044207;28;20172;-91
2022/08/15 08:21:15;;;;;;;4.83;3.13;;;28.30;47.80;;;;;;5034908;28;20678;-90
2022/08/15 08:23:48;;;;;;;3.27;2.43;;;28.30;47.90;;;;;;5042601;28;20175;-91
2022/08/15 08:30:04;;;;;;;4.37;2.90;;;28.30;47.90;;;;;;5039700;28;20482;-91
2022/08/15 08:33:04;;;;;;;4.30;2.80;;;28.30;47.80;;;;;;5045136;28;20206;-91
2022/08/15 08:36:11;;;;;;;2.90;2.70;;;28.30;47.70;;;;;;5042580;28;20176;-91
2022/08/15 08:38:49;;;;;;;4.27;2.50;;;28.40;48.00;;;;;;5041676;28;20423;-91
2022/08/15 08:41:37;;;;;;;3.40;2.43;;;28.30;47.80;;;;;;5043675;28;20196;-92
2022/08/15 08:44:26;;;;;;;2.70;2.50;;;28.30;48.00;;;;;;5041205;28;20581;-91
2022/08/15 08:47:18;;;;;;;3.47;2.70;;;28.30;47.90;;;;;;5042225;28;20168;-91
2022/08/15 08:53:42;;;;;;;3.60;2.90;;;28.30;47.70;;;;;;5046480;28;20240;-91
2022/08/15 08:59:54;;;;;;;6.27;2.80;;;28.30;47.90;;;;;;5044140;28;20170;-92
2022/08/15 09:02:35;;;;;;;2.83;2.53;;;28.30;48.60;;;;;;5045002;28;20366;-91
2022/08/15 09:15:00;;;;;;;3.47;3.00;;;28.50;47.80;;;;;;5039580;28;20249;-90
2022/08/15 09:21:01;;;;;;;3.13;2.60;;;28.50;47.70;;;;;;5038863;28;20179;-90
2022/08/15 09:23:47;;;;;;;4.13;2.57;;;28.60;47.60;;;;;;5044404;28;20573;-91
2022/08/15 09:26:24;;;;;;;3.77;3.10;;;28.70;47.50;;;;;;5046464;28;20175;-90
2022/08/15 09:32:28;;;;;;;2.70;2.50;;;28.80;47.40;;;;;;5038438;28;20191;-90
2022/08/15 09:35:15;;;;;;;4.73;3.07;;;28.90;47.30;;;;;;5038211;28;20479;-90
2022/08/15 09:38:06;;;;;;;2.90;2.70;;;29.00;47.40;;;;;;5042771;28;20184;-90
2022/08/15 09:40:41;;;;;;;4.43;2.70;;;29.00;47.20;;;;;;5044482;28;20193;-91
2022/08/15 09:43:25;;;;;;;3.47;2.80;;;29.10;47.10;;;;;;5034849;28;20228;-91
2022/08/15 09:49:40;;;;;;;2.90;2.53;;;29.20;47.00;;;;;;5045809;28;20167;-90
2022/08/15 09:52:18;;;;;;;2.58;2.25;;;29.20;47.00;;;;;;5046856;28;20179;-90
2022/08/15 09:54:56;;;;;;;4.10;2.87;;;29.30;47.00;;;;;;5030827;28;20528;-90
2022/08/15 09:57:28;;;;;;;3.90;2.83;;;29.30;47.00;;;;;;5041119;28;20180;-90
2022/08/15 10:03:54;;;;;;;4.05;2.72;;;29.40;47.10;;;;;;5038131;28;20280;-91
2022/08/15 10:10:19;;;;;;;4.70;3.10;;;29.50;46.90;;;;;;5039007;28;20186;-90
2022/08/15 10:13:26;;;;;;;3.80;3.08;;;29.60;46.80;;;;;;5016924;28;20593;-90
2022/08/15 10:19:44;;;;;;;3.95;2.78;;;29.80;46.70;;;;;;5036756;28;20463;-91
2022/08/15 10:22:22;;;;;;;3.28;2.88;;;30.00;46.60;;;;;;5035594;28;20377;-90
2022/08/15 10:25:22;;;;;;;4.38;2.80;;;30.10;46.40;;;;;;5037674;28;20175;-90
2022/08/15 10:28:19;;;;;;;4.00;2.70;;;30.20;46.40;;;;;;5030872;28;20164;-90
2022/08/15 10:31:37;;;;;;;4.10;2.88;;;30.30;46.30;;;;;;5024109;28;20207;-90
2022/08/15 10:34:03;;;;;;;4.57;2.80;;;30.20;46.30;;;;;;5041603;28;20179;-90
2022/08/15 10:36:35;;;;;;;3.95;2.80;;;30.20;46.40;;;;;;5046609;28;20180;-90
2022/08/15 10:39:47;;;;;;;4.32;3.20;;;30.20;46.50;;;;;;5033164;28;20180;-90
2022/08/15 10:45:46;;;;;;;3.42;2.88;;;30.10;46.70;;;;;;5057581;28;20224;-90
2022/08/15 10:49:27;;;;;;;4.78;2.63;;;30.00;46.70;;;;;;5054190;28;20565;-90
2022/08/15 10:51:58;;;;;;;4.90;2.80;;;30.00;46.60;;;;;;5053878;28;20180;-90
2022/08/15 10:55:16;;;;;;;2.95;2.75;;;30.00;46.50;;;;;;5027422;28;20520;-91
2022/08/15 11:01:48;;;;;;;;;;;;;;;;;;;;;
2022/08/15 11:04:36;;;;;;;3.25;2.60;;;30.20;46.60;;;;;;5045091;28;20189;-90
2022/08/15 11:10:28;;;;;;;3.72;3.00;;;30.10;47.00;;;;;;5040754;28;20203;-91
2022/08/15 11:13:12;;;;;;;4.18;2.83;;;30.10;46.70;;;;;;5037275;28;20550;-91
2022/08/15 11:15:56;;;;;;;5.55;3.28;;;30.10;46.90;;;;;;5039103;28;20172;-91
2022/08/15 11:22:37;;;;;;;3.17;2.75;;;30.10;46.90;;;;;;5042711;28;20277;-91
2022/08/15 11:25:20;;;;;;;3.45;2.70;;;30.10;47.00;;;;;;5038658;28;20337;-90
2022/08/15 11:28:13;;;;;;;3.28;2.88;;;30.20;46.90;;;;;;5042726;28;20566;-91
2022/08/15 11:38:01;;;;;;;4.90;3.33;;;30.10;46.90;;;;;;5036054;28;20164;-91
2022/08/15 11:47:47;;;;;;;3.78;2.90;;;30.10;47.20;;;;;;5033682;28;20167;-91
2022/08/15 11:50:24;;;;;;;3.65;3.13;;;30.10;47.20;;;;;;5039412;28;20163;-92
2022/08/15 11:52:54;;;;;;;5.05;2.90;;;30.10;47.20;;;;;;5034525;28;20234;-92
2022/08/15 11:56:13;;;;;;;6.82;3.42;;;30.00;47.40;;;;;;5025730;28;20255;-92
2022/08/15 12:02:19;;;;;;;3.22;2.92;;;30.00;47.60;;;;;;5041654;28;20213;-92
2022/08/15 12:08:08;;;;;;;3.63;3.13;;;29.90;47.80;;;;;;5037855;28;20187;-91
2022/08/15 12:14:22;;;;;;;3.42;3.13;;;29.80;47.90;;;;;;5039965;28;20246;-91
2022/08/15 12:20:10;;;;;;;5.03;3.15;;;29.80;48.20;;;;;;5037138;28;20279;-91
2022/08/15 12:22:42;;;;;;;6.82;3.45;;;29.80;48.00;;;;;;5040744;28;20208;-91
2022/08/15 12:25:09;;;;;;;4.15;3.30;;;29.80;48.00;;;;;;5041269;28;20176;-91
2022/08/15 12:27:35;;;;;;;6.63;3.33;;;29.80;47.90;;;;;;5041256;28;20322;-91
2022/08/15 12:30:07;;;;;;;6.20;3.67;;;29.80;48.30;;;;;;5043955;28;20265;-91
2022/08/15 12:32:33;;;;;;;5.95;4.30;;;29.80;48.10;;;;;;5045435;28;20191;-91
2022/08/15 12:35:28;;;;;;;7.85;4.18;;;29.90;48.10;;;;;;5041220;28;20438;-91
2022/08/15 12:37:54;;;;;;;6.72;4.30;;;29.90;48.20;;;;;;5035141;28;20180;-92
2022/08/15 12:40:20;;;;;;;9.35;4.28;;;29.90;48.30;;;;;;5037398;28;20218;-91
2022/08/15 12:46:08;;;;;;;6.05;4.55;;;29.90;48.50;;;;;;5043612;28;20385;-91
2022/08/15 12:49:28;;;;;;;9.27;4.22;;;29.90;48.80;;;;;;5039426;28;20164;-91
2022/08/15 12:52:10;;;;;;;7.85;4.18;;;29.90;48.60;;;;;;5030776;28;20534;-91
2022/08/15 12:55:15;;;;;;;7.82;4.60;;;30.00;48.60;;;;;;5037682;28;20168;-91
2022/08/15 12:57:41;;;;;;;6.57;4.40;;;30.00;48.50;;;;;;5042593;28;20184;-91
2022/08/15 13:00:40;;;;;;;8.27;4.65;;;30.10;48.50;;;;;;5040423;28;20175;-91
2022/08/15 13:03:29;;;;;;;8.68;4.53;;;30.10;48.50;;;;;;5041208;28;20559;-91
2022/08/15 13:06:27;;;;;;;7.28;4.50;;;30.20;48.30;;;;;;5045021;28;20241;-91
2022/08/15 13:08:54;;;;;;;8.18;4.80;;;30.20;48.50;;;;;;5041980;28;20646;-91
2022/08/15 13:11:22;;;;;;;6.72;4.43;;;30.20;48.30;;;;;;5077434;28;20203;-91
2022/08/15 13:23:42;;;;;;;5.25;3.90;;;30.20;48.30;;;;;;5046584;28;20274;-92
2022/08/15 13:26:14;;;;;;;7.40;4.60;;;30.20;48.40;;;;;;5039563;28;20631;-92
2022/08/15 13:28:59;;;;;;;7.88;4.70;;;30.20;48.20;;;;;;5034286;28;20218;-91
2022/08/15 13:31:25;;;;;;;6.80;4.05;;;30.10;48.30;;;;;;5022740;28;20322;-91
2022/08/15 13:40:40;;;;;;;4.97;3.78;;;30.20;48.50;;;;;;5043005;28;20444;-91
2022/08/15 13:43:06;;;;;;;6.78;4.20;;;30.20;48.50;;;;;;5045203;28;20716;-91
2022/08/15 13:45:33;;;;;;;5.82;4.18;;;30.10;48.60;;;;;;5046103;28;20271;-91
2022/08/15 13:51:30;;;;;;;6.05;4.25;;;30.10;48.60;;;;;;5011174;28;20214;-91
2022/08/15 13:54:24;;;;;;;4.70;3.47;;;29.90;49.50;;;;;;5042000;28;20456;-91
2022/08/15 13:56:59;;;;;;;6.70;3.85;;;29.90;48.90;;;;;;5038678;28;20195;-91
2022/08/15 14:02:47;;;;;;;6.25;3.85;;;30.00;49.00;;;;;;5006073;28;20230;-91
2022/08/15 14:05:16;;;;;;;3.65;3.35;;;29.90;49.20;;;;;;5027798;28;20570;-91
2022/08/15 14:07:46;;;;;;;4.70;3.72;;;29.90;49.00;;;;;;5012416;28;20339;-91
2022/08/15 14:10:21;;;;;;;4.30;3.88;;;29.90;48.80;;;;;;5029724;28;20342;-91
2022/08/15 14:12:47;;;;;;;5.63;3.65;;;30.00;48.90;;;;;;5045857;28;20176;-91
2022/08/15 14:15:50;;;;;;;4.97;3.63;;;30.00;49.00;;;;;;5040273;28;20666;-91
2022/08/15 14:18:41;;;;;;;6.95;3.75;;;30.00;48.90;;;;;;5039123;28;20238;-93
2022/08/15 14:24:29;;;;;;;8.10;4.00;;;30.00;48.90;;;;;;5037252;28;20695;-91
2022/08/15 14:26:55;;;;;;;5.47;3.53;;;30.00;48.70;;;;;;5034726;28;20187;-91
2022/08/15 14:29:41;;;;;;;3.80;3.40;;;30.10;48.80;;;;;;5029062;28;20192;-90
2022/08/15 14:32:12;;;;;;;5.13;3.60;;;30.00;48.90;;;;;;5036620;28;20504;-91
2022/08/15 14:34:38;;;;;;;4.72;3.28;;;30.00;48.80;;;;;;5037306;28;20211;-91
2022/08/15 14:37:53;;;;;;;3.95;3.55;;;30.00;48.60;;;;;;5031261;28;20489;-91
2022/08/15 14:43:44;;;;;;;4.47;3.60;;;30.10;48.60;;;;;;5026399;28;20375;-91
2022/08/15 14:46:31;;;;;;;4.13;3.67;;;30.00;48.80;;;;;;5018221;28;20175;-91
2022/08/15 14:49:15;;;;;;;4.05;3.65;;;30.00;49.10;;;;;;5024066;28;20226;-92
2022/08/15 14:55:06;;;;;;;4.25;3.58;;;30.00;48.60;;;;;;5031560;28;20702;-91
2022/08/15 14:58:27;;;;;;;4.05;3.65;;;30.00;48.60;;;;;;5006370;28;20175;-91
2022/08/15 15:04:15;;;;;;;4.55;3.40;;;29.90;48.60;;;;;;5035977;28;20174;-91
2022/08/15 15:06:45;;;;;;;4.00;3.40;;;30.00;48.60;;;;;;5037711;28;20380;-91
2022/08/15 15:09:16;;;;;;;3.75;3.35;;;29.90;48.70;;;;;;5026270;28;20303;-91
2022/08/15 15:12:01;;;;;;;4.90;3.33;;;29.90;48.60;;;;;;5019382;28;20580;-91
2022/08/15 15:14:41;;;;;;;5.25;3.40;;;29.90;48.70;;;;;;5034078;28;20172;-91
2022/08/15 15:24:13;;;;;;;4.07;3.05;;;29.80;48.80;;;;;;5034567;28;20202;-91
2022/08/15 15:26:42;;;;;;;4.00;3.10;;;29.80;48.80;;;;;;5043770;28;20220;-91
2022/08/15 15:29:44;;;;;;;6.00;3.30;;;29.80;48.90;;;;;;5038694;28;20192;-91
2022/08/15 15:32:10;;;;;;;4.30;3.47;;;29.80;48.90;;;;;;5039334;28;20437;-90
2022/08/15 15:34:58;;;;;;;4.85;3.20;;;29.80;49.00;;;;;;5036109;28;20176;-91
2022/08/15 15:40:47;;;;;;;4.03;3.13;;;29.80;48.80;;;;;;5044040;28;20500;-91
2022/08/15 15:43:13;;;;;;;3.92;3.22;;;29.80;48.80;;;;;;5046459;28;20519;-91
2022/08/15 15:45:41;;;;;;;5.18;3.58;;;29.80;49.00;;;;;;5045205;28;20466;-90
2022/08/15 15:48:10;;;;;;;5.72;3.78;;;29.80;49.10;;;;;;5047471;28;20172;-91
2022/08/15 15:51:10;;;;;;;3.53;3.22;;;29.80;49.00;;;;;;5041801;28;20176;-90
2022/08/15 15:53:36;;;;;;;3.28;2.97;;;29.80;49.00;;;;;;5048345;28;20299;-90
2022/08/15 15:56:27;;;;;;;3.67;3.38;;;29.80;48.80;;;;;;5039315;28;20168;-90
2022/08/15 15:58:52;;;;;;;6.55;3.08;;;29.80;48.80;;;;;;5035612;28;20222;-90
2022/08/15 16:01:21;;;;;;;3.30;2.90;;;29.80;48.80;;;;;;5038190;28;20207;-90
2022/08/15 16:03:47;;;;;;;4.57;3.35;;;29.80;48.90;;;;;;5044384;28;20172;-90
2022/08/15 16:06:15;;;;;;;3.47;3.17;;;29.80;49.00;;;;;;5045742;28;20451;-90
2022/08/15 16:08:44;;;;;;;6.03;3.40;;;29.80;48.80;;;;;;5025011;28;20173;-91
2022/08/15 16:11:36;;;;;;;4.47;3.10;;;29.70;48.80;;;;;;5035832;28;20172;-90
2022/08/15 16:14:17;;;;;;;3.38;3.03;;;29.80;48.90;;;;;;5045584;28;20194;-91
2022/08/15 16:17:19;;;;;;;3.30;3.00;;;29.70;49.00;;;;;;5049343;28;20172;-91
2022/08/15 16:20:31;;;;;;;4.05;3.33;;;29.70;49.00;;;;;;5015328;28;20395;-91
2022/08/15 16:23:36;;;;;;;3.30;3.00;;;29.70;49.00;;;;;;5042524;28;20489;-90
2022/08/15 16:26:47;;;;;;;4.30;4.00;;;29.70;49.00;;;;;;5027595;28;20180;-91
2022/08/15 16:33:09;;;;;;;3.33;3.03;;;29.60;48.80;;;;;;5052838;28;20187;-91
2022/08/15 16:35:40;;;;;;;3.40;3.10;;;29.60;48.80;;;;;;5059373;28;20499;-91
2022/08/15 16:45:37;;;;;;;3.88;3.58;;;29.60;48.80;;;;;;5048421;28;20175;-91
2022/08/15 16:48:46;;;;;;;3.00;2.80;;;29.60;48.90;;;;;;5060793;28;20184;-92
2022/08/15 16:52:11;;;;;;;3.45;3.15;;;29.60;49.00;;;;;;5058180;28;20182;-92
2022/08/15 16:55:22;;;;;;;3.72;3.33;;;29.50;49.00;;;;;;5058355;28;20203;-92
2022/08/15 16:58:18;;;;;;;3.75;3.42;;;29.50;49.10;;;;;;5044325;28;20210;-92
2022/08/15 17:11:03;;;;;;;4.65;3.40;;;29.60;49.30;;;;;;5037897;28;20190;-92
2022/08/15 17:13:53;;;;;;;3.58;3.28;;;29.60;49.20;;;;;;5040199;28;20565;-92
2022/08/15 17:16:48;;;;;;;4.57;3.65;;;29.50;49.20;;;;;;5042212;28;20237;-92
2022/08/15 17:19:54;;;;;;;5.60;3.75;;;29.50;49.30;;;;;;5040381;28;20510;-91
2022/08/15 17:32:29;;;;;;;4.22;3.72;;;29.30;49.60;;;;;;5045761;28;20635;-92
2022/08/15 17:35:35;;;;;;;4.63;3.53;;;29.30;49.70;;;;;;5040443;28;20216;-92